createdAt,value
2018-06-01T00:00:31.835Z,0
2018-06-01T00:01:32.505Z,0
2018-06-01T00:02:33.175Z,0
2018-06-01T00:03:33.847Z,0
2018-06-01T00:04:34.518Z,0
2018-06-01T00:05:35.187Z,0
2018-06-01T00:06:35.860Z,0
2018-06-01T00:07:36.534Z,0
2018-06-01T00:08:37.205Z,0
2018-06-01T00:09:37.877Z,0
2018-06-01T00:10:38.549Z,0
2018-06-01T00:11:39.269Z,0
2018-06-01T00:12:39.941Z,0
2018-06-01T00:13:40.614Z,0
2018-06-01T00:14:41.285Z,0
2018-06-01T00:15:41.953Z,0
2018-06-01T00:16:42.624Z,0
2018-06-01T00:17:43.293Z,0
2018-06-01T00:18:43.968Z,0
2018-06-01T00:19:44.635Z,0
2018-06-01T00:20:45.317Z,0
2018-06-01T00:21:46.014Z,0
2018-06-01T00:22:46.685Z,0
2018-06-01T00:23:47.358Z,0
2018-06-01T00:24:48.030Z,0
2018-06-01T00:25:48.708Z,0
2018-06-01T00:26:49.664Z,0
2018-06-01T00:27:50.337Z,0
2018-06-01T00:28:51.009Z,0
2018-06-01T00:29:51.681Z,0
2018-06-01T00:30:52.352Z,0
2018-06-01T00:31:53.023Z,0
2018-06-01T00:32:53.694Z,0
2018-06-01T00:33:54.366Z,0
2018-06-01T00:34:55.037Z,0
2018-06-01T00:35:55.708Z,0
2018-06-01T00:36:56.380Z,0
2018-06-01T00:37:57.049Z,0
2018-06-01T00:38:57.720Z,0
2018-06-01T00:39:58.395Z,0
2018-06-01T00:40:59.061Z,0
2018-06-01T00:41:59.732Z,0
2018-06-01T00:43:00.403Z,0
2018-06-01T00:44:01.074Z,0
2018-06-01T00:45:01.747Z,0
2018-06-01T00:46:02.420Z,0
2018-06-01T00:47:03.092Z,0
2018-06-01T00:48:03.763Z,0
2018-06-01T00:49:04.433Z,0
2018-06-01T00:50:05.104Z,0
2018-06-01T00:51:05.775Z,0
2018-06-01T00:52:06.447Z,0
2018-06-01T00:53:07.117Z,0
2018-06-01T00:54:07.789Z,0
2018-06-01T00:55:08.460Z,0
2018-06-01T00:56:09.130Z,0
2018-06-01T00:57:09.802Z,0
2018-06-01T00:58:10.474Z,0
2018-06-01T00:59:11.143Z,0
2018-06-01T01:00:11.812Z,0
2018-06-01T01:01:12.482Z,0
2018-06-01T01:02:13.152Z,0
2018-06-01T01:03:13.823Z,0
2018-06-01T01:04:14.496Z,0
2018-06-01T01:05:15.168Z,0
2018-06-01T01:06:15.840Z,0
2018-06-01T01:07:16.511Z,0
2018-06-01T01:08:17.181Z,0
2018-06-01T01:09:17.851Z,0
2018-06-01T01:10:18.522Z,0
2018-06-01T01:11:19.194Z,0
2018-06-01T01:12:19.867Z,0
2018-06-01T01:13:20.544Z,0
2018-06-01T01:14:21.246Z,0
2018-06-01T01:15:21.918Z,0
2018-06-01T01:16:22.589Z,0
2018-06-01T01:17:23.259Z,0
2018-06-01T01:18:23.930Z,0
2018-06-01T01:19:24.604Z,0
2018-06-01T01:20:25.271Z,0
2018-06-01T01:21:25.941Z,0
2018-06-01T01:22:26.612Z,0
2018-06-01T01:23:27.285Z,0
2018-06-01T01:24:27.962Z,0
2018-06-01T01:25:28.631Z,0
2018-06-01T01:26:29.299Z,0
2018-06-01T01:27:30.022Z,0
2018-06-01T01:28:30.691Z,0
2018-06-01T01:29:31.399Z,0
2018-06-01T01:30:32.072Z,0
2018-06-01T01:31:32.743Z,0
2018-06-01T01:32:33.413Z,0
2018-06-01T01:33:34.084Z,0
2018-06-01T01:34:34.755Z,0
2018-06-01T01:35:35.425Z,0
2018-06-01T01:36:36.095Z,0
2018-06-01T01:37:36.765Z,0
2018-06-01T01:38:37.438Z,0
2018-06-01T01:39:38.111Z,0
2018-06-01T01:40:38.782Z,0
2018-06-01T01:41:39.454Z,0
2018-06-01T01:42:40.124Z,0
2018-06-01T01:43:40.793Z,0
2018-06-01T01:44:41.465Z,0
2018-06-01T01:45:42.137Z,0
2018-06-01T01:46:42.808Z,0
2018-06-01T01:47:43.479Z,0
2018-06-01T01:48:44.155Z,0
2018-06-01T01:49:44.824Z,0
2018-06-01T01:50:45.528Z,0
2018-06-01T01:51:46.198Z,0
2018-06-01T01:52:46.869Z,0
2018-06-01T01:53:47.539Z,0
2018-06-01T01:54:48.209Z,0
2018-06-01T01:55:48.881Z,0
2018-06-01T01:56:49.550Z,0
2018-06-01T01:57:50.220Z,0
2018-06-01T01:58:50.895Z,0
2018-06-01T01:59:51.565Z,0
2018-06-01T02:00:52.236Z,0
2018-06-01T02:01:52.906Z,0
2018-06-01T02:02:53.584Z,0
2018-06-01T02:03:54.247Z,0
2018-06-01T02:04:54.918Z,0
2018-06-01T02:05:55.590Z,0
2018-06-01T02:06:56.261Z,0
2018-06-01T02:07:56.933Z,0
2018-06-01T02:08:57.603Z,0
2018-06-01T02:09:58.273Z,0
2018-06-01T02:10:58.944Z,0
2018-06-01T02:11:59.614Z,0
2018-06-01T02:13:00.284Z,0
2018-06-01T02:14:00.955Z,0
2018-06-01T02:15:01.627Z,0
2018-06-01T02:16:02.298Z,0
2018-06-01T02:17:02.971Z,0
2018-06-01T02:18:03.643Z,0
2018-06-01T02:19:04.311Z,0
2018-06-01T02:20:04.982Z,0
2018-06-01T02:21:05.651Z,0
2018-06-01T02:22:06.323Z,0
2018-06-01T02:23:06.993Z,0
2018-06-01T02:24:07.664Z,0
2018-06-01T02:25:08.341Z,0
2018-06-01T02:26:09.008Z,0
2018-06-01T02:27:09.677Z,0
2018-06-01T02:28:10.388Z,0
2018-06-01T02:29:11.054Z,0
2018-06-01T02:30:11.725Z,0
2018-06-01T02:31:12.394Z,0
2018-06-01T02:32:13.065Z,0
2018-06-01T02:33:13.739Z,0
2018-06-01T02:34:14.408Z,0
2018-06-01T02:35:15.080Z,0
2018-06-01T02:36:15.753Z,0
2018-06-01T02:37:16.422Z,0
2018-06-01T02:38:17.133Z,0
2018-06-01T02:39:17.803Z,0
2018-06-01T02:40:18.538Z,0
2018-06-01T02:41:19.223Z,0
2018-06-01T02:42:19.894Z,0
2018-06-01T02:43:20.563Z,0
2018-06-01T02:44:21.233Z,0
2018-06-01T02:45:21.904Z,0
2018-06-01T02:46:22.577Z,0
2018-06-01T02:47:23.281Z,0
2018-06-01T02:48:23.954Z,0
2018-06-01T02:49:24.625Z,0
2018-06-01T02:50:25.299Z,0
2018-06-01T02:51:25.972Z,0
2018-06-01T02:52:26.640Z,0
2018-06-01T02:53:27.312Z,0
2018-06-01T02:54:27.983Z,0
2018-06-01T02:55:28.655Z,0
2018-06-01T02:56:29.327Z,0
2018-06-01T02:57:30.042Z,0
2018-06-01T02:58:30.749Z,0
2018-06-01T02:59:31.423Z,0
2018-06-01T03:00:32.096Z,0
2018-06-01T03:01:32.767Z,0
2018-06-01T03:02:33.437Z,0
2018-06-01T03:03:34.113Z,0
2018-06-01T03:04:34.819Z,0
2018-06-01T03:05:35.489Z,0
2018-06-01T03:06:36.162Z,0
2018-06-01T03:07:36.834Z,0
2018-06-01T03:08:37.507Z,0
2018-06-01T03:09:38.180Z,0
2018-06-01T03:10:38.856Z,0
2018-06-01T03:11:39.527Z,0
2018-06-01T03:12:40.201Z,5
2018-06-01T03:13:40.913Z,5
2018-06-01T03:14:41.585Z,5
2018-06-01T03:15:42.260Z,5
2018-06-01T03:16:42.936Z,5
2018-06-01T03:17:43.604Z,5
2018-06-01T03:18:44.276Z,5
2018-06-01T03:19:44.948Z,5
2018-06-01T03:20:45.622Z,5
2018-06-01T03:21:46.296Z,5
2018-06-01T03:22:46.969Z,5
2018-06-01T03:23:47.641Z,5
2018-06-01T03:24:48.315Z,5
2018-06-01T03:25:48.986Z,5
2018-06-01T03:26:49.678Z,11
2018-06-01T03:27:50.335Z,11
2018-06-01T03:28:51.007Z,11
2018-06-01T03:29:51.689Z,11
2018-06-01T03:30:52.356Z,11
2018-06-01T03:31:53.031Z,11
2018-06-01T03:32:53.704Z,11
2018-06-01T03:33:54.380Z,11
2018-06-01T03:34:55.054Z,16
2018-06-01T03:35:55.731Z,16
2018-06-01T03:36:56.402Z,16
2018-06-01T03:37:57.077Z,16
2018-06-01T03:38:57.796Z,16
2018-06-01T03:39:58.423Z,22
2018-06-01T03:40:59.098Z,22
2018-06-01T03:41:59.771Z,22
2018-06-01T03:43:00.445Z,28
2018-06-01T03:44:01.118Z,28
2018-06-01T03:45:01.794Z,28
2018-06-01T03:46:02.468Z,28
2018-06-01T03:47:03.141Z,28
2018-06-01T03:48:03.819Z,28
2018-06-01T03:49:04.489Z,28
2018-06-01T03:50:05.162Z,28
2018-06-01T03:51:05.836Z,33
2018-06-01T03:52:06.512Z,33
2018-06-01T03:53:07.189Z,33
2018-06-01T03:54:07.862Z,33
2018-06-01T03:55:08.539Z,33
2018-06-01T03:56:09.213Z,33
2018-06-01T03:57:09.887Z,33
2018-06-01T03:58:10.565Z,33
2018-06-01T03:59:11.239Z,33
2018-06-01T04:00:11.915Z,33
2018-06-01T04:01:12.629Z,33
2018-06-01T04:02:13.304Z,33
2018-06-01T04:03:13.978Z,39
2018-06-01T04:04:14.653Z,39
2018-06-01T04:05:15.328Z,39
2018-06-01T04:06:16.005Z,39
2018-06-01T04:07:16.680Z,45
2018-06-01T04:08:17.357Z,45
2018-06-01T04:09:18.029Z,50
2018-06-01T04:10:18.706Z,50
2018-06-01T04:11:19.379Z,50
2018-06-01T04:12:20.054Z,50
2018-06-01T04:13:20.730Z,50
2018-06-01T04:14:21.403Z,50
2018-06-01T04:15:22.080Z,50
2018-06-01T04:16:22.793Z,50
2018-06-01T04:17:23.505Z,50
2018-06-01T04:18:24.181Z,50
2018-06-01T04:19:24.866Z,50
2018-06-01T04:20:25.533Z,50
2018-06-01T04:21:26.207Z,56
2018-06-01T04:22:26.882Z,56
2018-06-01T04:23:27.558Z,56
2018-06-01T04:24:28.232Z,50
2018-06-01T04:25:28.909Z,50
2018-06-01T04:26:29.583Z,50
2018-06-01T04:27:30.263Z,50
2018-06-01T04:28:30.938Z,50
2018-06-01T04:29:31.610Z,56
2018-06-01T04:30:32.284Z,56
2018-06-01T04:31:32.961Z,67
2018-06-01T04:32:33.662Z,73
2018-06-01T04:33:34.313Z,78
2018-06-01T04:34:34.990Z,84
2018-06-01T04:35:35.663Z,90
2018-06-01T04:36:36.337Z,90
2018-06-01T04:37:37.019Z,90
2018-06-01T04:38:37.690Z,90
2018-06-01T04:39:38.366Z,84
2018-06-01T04:40:39.042Z,84
2018-06-01T04:41:39.716Z,84
2018-06-01T04:42:40.392Z,84
2018-06-01T04:43:41.068Z,90
2018-06-01T04:44:41.744Z,90
2018-06-01T04:45:42.420Z,90
2018-06-01T04:46:43.096Z,90
2018-06-01T04:47:43.772Z,84
2018-06-01T04:48:44.447Z,78
2018-06-01T04:49:45.124Z,73
2018-06-01T04:50:45.839Z,73
2018-06-01T04:51:46.516Z,73
2018-06-01T04:52:47.192Z,73
2018-06-01T04:53:47.868Z,78
2018-06-01T04:54:48.544Z,78
2018-06-01T04:55:49.219Z,78
2018-06-01T04:56:49.897Z,78
2018-06-01T04:57:50.571Z,78
2018-06-01T04:58:51.246Z,78
2018-06-01T04:59:51.923Z,78
2018-06-01T05:00:52.598Z,78
2018-06-01T05:01:53.275Z,78
2018-06-01T05:02:53.953Z,78
2018-06-01T05:03:54.629Z,78
2018-06-01T05:04:55.302Z,78
2018-06-01T05:05:55.980Z,84
2018-06-01T05:06:56.658Z,84
2018-06-01T05:07:57.332Z,78
2018-06-01T05:08:58.010Z,84
2018-06-01T05:09:58.685Z,95
2018-06-01T05:10:59.363Z,101
2018-06-01T05:12:00.045Z,101
2018-06-01T05:13:00.721Z,106
2018-06-01T05:14:01.401Z,106
2018-06-01T05:15:02.073Z,112
2018-06-01T05:16:02.752Z,112
2018-06-01T05:17:03.465Z,106
2018-06-01T05:18:04.141Z,95
2018-06-01T05:19:04.815Z,84
2018-06-01T05:20:05.491Z,78
2018-06-01T05:21:06.168Z,73
2018-06-01T05:22:06.845Z,73
2018-06-01T05:23:07.520Z,73
2018-06-01T05:24:08.196Z,67
2018-06-01T05:25:08.872Z,67
2018-06-01T05:26:09.550Z,67
2018-06-01T05:27:10.225Z,67
2018-06-01T05:28:10.902Z,67
2018-06-01T05:29:11.578Z,67
2018-06-01T05:30:12.255Z,67
2018-06-01T05:31:12.932Z,67
2018-06-01T05:32:13.607Z,67
2018-06-01T05:33:14.322Z,67
2018-06-01T05:34:15.000Z,67
2018-06-01T05:35:15.677Z,67
2018-06-01T05:36:16.353Z,67
2018-06-01T05:37:17.030Z,73
2018-06-01T05:38:17.705Z,73
2018-06-01T05:39:18.381Z,78
2018-06-01T05:40:19.059Z,78
2018-06-01T05:41:19.773Z,78
2018-06-01T05:42:20.449Z,78
2018-06-01T05:43:21.126Z,84
2018-06-01T05:44:21.804Z,84
2018-06-01T05:45:22.480Z,84
2018-06-01T05:46:23.158Z,90
2018-06-01T05:47:23.851Z,90
2018-06-01T05:48:24.542Z,90
2018-06-01T05:49:25.218Z,90
2018-06-01T05:50:25.896Z,95
2018-06-01T05:51:26.575Z,95
2018-06-01T05:52:27.256Z,95
2018-06-01T05:53:27.929Z,95
2018-06-01T05:54:28.608Z,95
2018-06-01T05:55:29.284Z,95
2018-06-01T05:56:30.000Z,95
2018-06-01T05:57:30.680Z,95
2018-06-01T05:58:31.353Z,84
2018-06-01T05:59:32.030Z,78
2018-06-01T06:00:32.707Z,73
2018-06-01T06:01:33.386Z,73
2018-06-01T06:02:34.065Z,73
2018-06-01T06:03:34.741Z,73
2018-06-01T06:04:35.435Z,73
2018-06-01T06:05:36.099Z,78
2018-06-01T06:06:36.776Z,78
2018-06-01T06:07:37.472Z,84
2018-06-01T06:08:38.131Z,84
2018-06-01T06:09:38.809Z,84
2018-06-01T06:10:39.489Z,90
2018-06-01T06:11:40.163Z,90
2018-06-01T06:12:40.839Z,90
2018-06-01T06:13:41.517Z,95
2018-06-01T06:14:42.193Z,95
2018-06-01T06:15:42.872Z,95
2018-06-01T06:16:43.549Z,95
2018-06-01T06:17:44.235Z,95
2018-06-01T06:18:44.903Z,95
2018-06-01T06:19:45.584Z,95
2018-06-01T06:20:46.266Z,101
2018-06-01T06:21:46.939Z,101
2018-06-01T06:22:47.617Z,101
2018-06-01T06:23:48.294Z,106
2018-06-01T06:24:48.974Z,112
2018-06-01T06:25:49.654Z,112
2018-06-01T06:26:50.367Z,118
2018-06-01T06:27:51.045Z,118
2018-06-01T06:28:51.723Z,123
2018-06-01T06:29:52.401Z,129
2018-06-01T06:30:53.081Z,129
2018-06-01T06:31:53.759Z,135
2018-06-01T06:32:54.438Z,140
2018-06-01T06:33:55.117Z,146
2018-06-01T06:34:55.794Z,151
2018-06-01T06:35:56.475Z,157
2018-06-01T06:36:57.153Z,157
2018-06-01T06:37:57.831Z,163
2018-06-01T06:38:58.510Z,168
2018-06-01T06:39:59.227Z,168
2018-06-01T06:40:59.903Z,174
2018-06-01T06:42:00.582Z,174
2018-06-01T06:43:01.262Z,180
2018-06-01T06:44:01.940Z,185
2018-06-01T06:45:02.619Z,191
2018-06-01T06:46:03.297Z,191
2018-06-01T06:47:03.978Z,191
2018-06-01T06:48:04.657Z,196
2018-06-01T06:49:05.336Z,196
2018-06-01T06:50:06.018Z,202
2018-06-01T06:51:06.692Z,208
2018-06-01T06:52:07.372Z,213
2018-06-01T06:53:08.054Z,219
2018-06-01T06:54:08.732Z,225
2018-06-01T06:55:09.421Z,236
2018-06-01T06:56:10.128Z,247
2018-06-01T06:57:10.807Z,258
2018-06-01T06:58:11.489Z,270
2018-06-01T06:59:12.171Z,281
2018-06-01T07:00:12.888Z,286
2018-06-01T07:01:13.568Z,292
2018-06-01T07:02:14.247Z,286
2018-06-01T07:03:14.928Z,275
2018-06-01T07:04:15.608Z,264
2018-06-01T07:05:16.289Z,264
2018-06-01T07:06:16.969Z,258
2018-06-01T07:07:17.647Z,258
2018-06-01T07:08:18.327Z,258
2018-06-01T07:09:19.009Z,258
2018-06-01T07:10:19.688Z,258
2018-06-01T07:11:20.369Z,258
2018-06-01T07:12:21.047Z,258
2018-06-01T07:13:21.727Z,258
2018-06-01T07:14:22.410Z,258
2018-06-01T07:15:23.090Z,253
2018-06-01T07:16:23.769Z,258
2018-06-01T07:17:24.450Z,264
2018-06-01T07:18:25.129Z,270
2018-06-01T07:19:25.811Z,286
2018-06-01T07:20:26.556Z,320
2018-06-01T07:21:27.175Z,320
2018-06-01T07:22:27.880Z,371
2018-06-01T07:23:28.537Z,399
2018-06-01T07:24:29.222Z,455
2018-06-01T07:25:29.905Z,489
2018-06-01T07:26:30.582Z,517
2018-06-01T07:27:31.263Z,517
2018-06-01T07:28:31.944Z,618
2018-06-01T07:29:32.631Z,725
2018-06-01T07:30:33.307Z,804
2018-06-01T07:31:33.990Z,894
2018-06-01T07:32:34.671Z,1001
2018-06-01T07:33:35.353Z,765
2018-06-01T07:34:36.042Z,703
2018-06-01T07:35:36.719Z,720
2018-06-01T07:36:37.389Z,990
2018-06-01T07:37:38.059Z,945
2018-06-01T07:38:38.730Z,1035
2018-06-01T07:39:39.401Z,855
2018-06-01T07:40:40.073Z,883
2018-06-01T07:41:40.746Z,607
2018-06-01T07:42:41.418Z,585
2018-06-01T07:43:42.091Z,528
2018-06-01T07:44:42.761Z,506
2018-06-01T07:45:43.433Z,579
2018-06-01T07:46:44.105Z,556
2018-06-01T07:47:44.776Z,624
2018-06-01T07:48:45.488Z,731
2018-06-01T07:49:46.158Z,663
2018-06-01T07:50:46.831Z,545
2018-06-01T07:51:47.503Z,489
2018-06-01T07:52:48.178Z,551
2018-06-01T07:53:48.856Z,590
2018-06-01T07:54:49.533Z,646
2018-06-01T07:55:50.201Z,607
2018-06-01T07:56:50.876Z,556
2018-06-01T07:57:51.547Z,646
2018-06-01T07:58:52.220Z,652
2018-06-01T07:59:52.892Z,573
2018-06-01T08:00:53.569Z,540
2018-06-01T08:01:54.289Z,528
2018-06-01T08:02:54.964Z,534
2018-06-01T08:03:55.638Z,534
2018-06-01T08:04:56.311Z,472
2018-06-01T08:05:56.985Z,534
2018-06-01T08:06:57.657Z,568
2018-06-01T08:07:58.329Z,534
2018-06-01T08:08:59.003Z,416
2018-06-01T08:09:59.677Z,376
2018-06-01T08:11:00.352Z,354
2018-06-01T08:12:01.071Z,360
2018-06-01T08:13:01.739Z,360
2018-06-01T08:14:02.413Z,348
2018-06-01T08:15:03.083Z,343
2018-06-01T08:16:03.756Z,343
2018-06-01T08:17:04.681Z,343
2018-06-01T08:18:05.352Z,348
2018-06-01T08:19:06.027Z,450
2018-06-01T08:20:06.711Z,365
2018-06-01T08:21:07.376Z,365
2018-06-01T08:22:08.050Z,365
2018-06-01T08:23:08.724Z,365
2018-06-01T08:24:09.398Z,360
2018-06-01T08:25:10.072Z,354
2018-06-01T08:26:10.744Z,343
2018-06-01T08:27:11.415Z,337
2018-06-01T08:28:12.088Z,365
2018-06-01T08:29:12.761Z,331
2018-06-01T08:30:13.434Z,337
2018-06-01T08:31:14.110Z,337
2018-06-01T08:32:14.786Z,326
2018-06-01T08:33:15.453Z,326
2018-06-01T08:34:16.126Z,320
2018-06-01T08:35:16.800Z,315
2018-06-01T08:36:17.478Z,303
2018-06-01T08:37:18.181Z,292
2018-06-01T08:38:18.853Z,292
2018-06-01T08:39:19.540Z,303
2018-06-01T08:40:20.234Z,309
2018-06-01T08:41:20.905Z,309
2018-06-01T08:42:21.579Z,315
2018-06-01T08:43:22.252Z,320
2018-06-01T08:44:22.923Z,331
2018-06-01T08:45:23.594Z,354
2018-06-01T08:46:24.275Z,376
2018-06-01T08:47:24.938Z,388
2018-06-01T08:48:25.611Z,410
2018-06-01T08:49:26.282Z,528
2018-06-01T08:50:26.960Z,495
2018-06-01T08:51:27.627Z,416
2018-06-01T08:52:28.304Z,410
2018-06-01T08:53:29.012Z,438
2018-06-01T08:54:29.682Z,399
2018-06-01T08:55:30.354Z,320
2018-06-01T08:56:31.026Z,298
2018-06-01T08:57:31.700Z,309
2018-06-01T08:58:32.372Z,320
2018-06-01T08:59:33.045Z,326
2018-06-01T09:00:33.719Z,286
2018-06-01T09:01:34.387Z,286
2018-06-01T09:02:35.059Z,286
2018-06-01T09:03:35.732Z,281
2018-06-01T09:04:36.449Z,298
2018-06-01T09:05:37.140Z,298
2018-06-01T09:06:37.811Z,298
2018-06-01T09:07:38.483Z,292
2018-06-01T09:08:39.157Z,298
2018-06-01T09:09:39.829Z,298
2018-06-01T09:10:40.501Z,315
2018-06-01T09:11:41.173Z,331
2018-06-01T09:12:41.845Z,343
2018-06-01T09:13:42.518Z,371
2018-06-01T09:14:43.193Z,388
2018-06-01T09:15:43.863Z,421
2018-06-01T09:16:44.590Z,438
2018-06-01T09:17:45.209Z,433
2018-06-01T09:18:45.881Z,416
2018-06-01T09:19:46.554Z,427
2018-06-01T09:20:47.227Z,410
2018-06-01T09:21:47.900Z,416
2018-06-01T09:22:48.575Z,416
2018-06-01T09:23:49.249Z,421
2018-06-01T09:24:49.923Z,438
2018-06-01T09:25:50.597Z,438
2018-06-01T09:26:51.270Z,444
2018-06-01T09:27:51.941Z,416
2018-06-01T09:28:52.612Z,399
2018-06-01T09:29:53.286Z,393
2018-06-01T09:30:53.959Z,388
2018-06-01T09:31:54.672Z,382
2018-06-01T09:32:55.391Z,365
2018-06-01T09:33:56.062Z,343
2018-06-01T09:34:56.734Z,331
2018-06-01T09:35:57.406Z,320
2018-06-01T09:36:58.114Z,326
2018-06-01T09:37:58.782Z,303
2018-06-01T09:38:59.454Z,286
2018-06-01T09:40:00.125Z,270
2018-06-01T09:41:00.796Z,258
2018-06-01T09:42:01.469Z,247
2018-06-01T09:43:02.143Z,241
2018-06-01T09:44:02.814Z,230
2018-06-01T09:45:03.521Z,230
2018-06-01T09:46:04.192Z,230
2018-06-01T09:47:04.863Z,236
2018-06-01T09:48:05.535Z,247
2018-06-01T09:49:06.205Z,270
2018-06-01T09:50:06.914Z,270
2018-06-01T09:51:07.585Z,281
2018-06-01T09:52:08.253Z,258
2018-06-01T09:53:08.926Z,253
2018-06-01T09:54:09.600Z,264
2018-06-01T09:55:10.267Z,281
2018-06-01T09:56:10.939Z,275
2018-06-01T09:57:11.610Z,264
2018-06-01T09:58:12.282Z,270
2018-06-01T09:59:12.989Z,281
2018-06-01T10:00:13.661Z,315
2018-06-01T10:01:14.331Z,303
2018-06-01T10:02:15.003Z,320
2018-06-01T10:03:15.673Z,326
2018-06-01T10:04:16.348Z,365
2018-06-01T10:05:17.020Z,388
2018-06-01T10:06:17.691Z,405
2018-06-01T10:07:18.362Z,421
2018-06-01T10:08:19.034Z,416
2018-06-01T10:09:19.704Z,405
2018-06-01T10:10:20.376Z,382
2018-06-01T10:11:21.052Z,320
2018-06-01T10:12:21.720Z,343
2018-06-01T10:13:22.428Z,331
2018-06-01T10:14:23.135Z,286
2018-06-01T10:15:23.804Z,292
2018-06-01T10:16:24.476Z,309
2018-06-01T10:17:25.146Z,281
2018-06-01T10:18:25.824Z,258
2018-06-01T10:19:26.492Z,253
2018-06-01T10:20:27.163Z,219
2018-06-01T10:21:27.833Z,196
2018-06-01T10:22:28.503Z,191
2018-06-01T10:23:29.174Z,174
2018-06-01T10:24:29.844Z,174
2018-06-01T10:25:30.515Z,185
2018-06-01T10:26:31.233Z,225
2018-06-01T10:27:31.922Z,270
2018-06-01T10:28:32.594Z,303
2018-06-01T10:29:33.265Z,360
2018-06-01T10:30:33.936Z,337
2018-06-01T10:31:34.607Z,360
2018-06-01T10:32:35.278Z,331
2018-06-01T10:33:35.946Z,298
2018-06-01T10:34:36.619Z,264
2018-06-01T10:35:37.291Z,264
2018-06-01T10:36:37.962Z,270
2018-06-01T10:37:38.631Z,281
2018-06-01T10:38:39.304Z,281
2018-06-01T10:39:39.976Z,258
2018-06-01T10:40:40.644Z,241
2018-06-01T10:41:41.314Z,225
2018-06-01T10:42:41.985Z,213
2018-06-01T10:43:42.656Z,208
2018-06-01T10:44:43.329Z,213
2018-06-01T10:45:44.034Z,213
2018-06-01T10:46:44.705Z,236
2018-06-01T10:47:45.376Z,292
2018-06-01T10:48:46.047Z,326
2018-06-01T10:49:46.717Z,348
2018-06-01T10:50:47.387Z,309
2018-06-01T10:51:48.057Z,298
2018-06-01T10:52:48.727Z,253
2018-06-01T10:53:49.435Z,208
2018-06-01T10:54:50.105Z,168
2018-06-01T10:55:50.776Z,174
2018-06-01T10:56:51.448Z,185
2018-06-01T10:57:52.120Z,225
2018-06-01T10:58:52.826Z,253
2018-06-01T10:59:53.498Z,270
2018-06-01T11:00:54.170Z,286
2018-06-01T11:01:54.838Z,286
2018-06-01T11:02:55.507Z,281
2018-06-01T11:03:56.180Z,258
2018-06-01T11:04:56.849Z,253
2018-06-01T11:05:57.555Z,258
2018-06-01T11:06:58.228Z,331
2018-06-01T11:07:58.899Z,416
2018-06-01T11:08:59.569Z,455
2018-06-01T11:10:00.241Z,455
2018-06-01T11:11:00.915Z,410
2018-06-01T11:12:01.626Z,393
2018-06-01T11:13:02.333Z,360
2018-06-01T11:14:03.008Z,354
2018-06-01T11:15:03.680Z,320
2018-06-01T11:16:04.349Z,315
2018-06-01T11:17:05.020Z,275
2018-06-01T11:18:05.695Z,247
2018-06-01T11:19:06.412Z,258
2018-06-01T11:20:07.082Z,309
2018-06-01T11:21:07.752Z,270
2018-06-01T11:22:08.422Z,247
2018-06-01T11:23:09.093Z,264
2018-06-01T11:24:09.801Z,196
2018-06-01T11:25:10.471Z,225
2018-06-01T11:26:11.140Z,225
2018-06-01T11:27:11.815Z,236
2018-06-01T11:28:12.519Z,202
2018-06-01T11:29:13.192Z,174
2018-06-01T11:30:13.864Z,185
2018-06-01T11:31:14.536Z,174
2018-06-01T11:32:15.221Z,196
2018-06-01T11:33:15.874Z,241
2018-06-01T11:34:16.544Z,225
2018-06-01T11:35:17.216Z,258
2018-06-01T11:36:17.885Z,247
2018-06-01T11:37:18.559Z,286
2018-06-01T11:38:19.257Z,292
2018-06-01T11:39:19.902Z,286
2018-06-01T11:40:20.570Z,309
2018-06-01T11:41:21.248Z,320
2018-06-01T11:42:21.910Z,315
2018-06-01T11:43:22.616Z,337
2018-06-01T11:44:23.289Z,315
2018-06-01T11:45:23.957Z,309
2018-06-01T11:46:24.629Z,315
2018-06-01T11:47:25.298Z,298
2018-06-01T11:48:25.968Z,303
2018-06-01T11:49:26.640Z,315
2018-06-01T11:50:27.308Z,275
2018-06-01T11:51:28.012Z,275
2018-06-01T11:52:28.648Z,275
2018-06-01T11:53:29.320Z,275
2018-06-01T11:54:29.991Z,298
2018-06-01T11:55:30.696Z,315
2018-06-01T11:56:31.368Z,298
2018-06-01T11:57:32.038Z,292
2018-06-01T11:58:32.748Z,270
2018-06-01T11:59:33.419Z,247
2018-06-01T12:00:34.094Z,253
2018-06-01T12:01:34.759Z,241
2018-06-01T12:02:35.435Z,196
2018-06-01T12:03:36.150Z,180
2018-06-01T12:04:36.807Z,174
2018-06-01T12:05:37.476Z,140
2018-06-01T12:06:38.148Z,185
2018-06-01T12:07:38.819Z,157
2018-06-01T12:08:39.490Z,163
2018-06-01T12:09:40.158Z,174
2018-06-01T12:10:40.829Z,168
2018-06-01T12:11:41.497Z,118
2018-06-01T12:12:42.166Z,129
2018-06-01T12:13:42.837Z,157
2018-06-01T12:14:43.508Z,140
2018-06-01T12:15:44.177Z,163
2018-06-01T12:16:44.851Z,191
2018-06-01T12:17:45.580Z,213
2018-06-01T12:18:46.187Z,253
2018-06-01T12:19:46.857Z,275
2018-06-01T12:20:47.565Z,298
2018-06-01T12:21:48.237Z,309
2018-06-01T12:22:48.907Z,286
2018-06-01T12:23:49.576Z,241
2018-06-01T12:24:50.244Z,202
2018-06-01T12:25:50.915Z,202
2018-06-01T12:26:51.584Z,151
2018-06-01T12:27:52.254Z,185
2018-06-01T12:28:52.924Z,180
2018-06-01T12:29:53.595Z,185
2018-06-01T12:30:54.267Z,191
2018-06-01T12:31:54.935Z,191
2018-06-01T12:32:55.604Z,185
2018-06-01T12:33:56.273Z,174
2018-06-01T12:34:56.947Z,163
2018-06-01T12:35:57.612Z,157
2018-06-01T12:36:58.293Z,146
2018-06-01T12:37:58.990Z,146
2018-06-01T12:38:59.659Z,146
2018-06-01T12:40:00.326Z,135
2018-06-01T12:41:00.995Z,146
2018-06-01T12:42:01.665Z,146
2018-06-01T12:43:02.335Z,106
2018-06-01T12:44:03.008Z,118
2018-06-01T12:45:03.679Z,146
2018-06-01T12:46:04.350Z,168
2018-06-01T12:47:05.018Z,213
2018-06-01T12:48:05.686Z,208
2018-06-01T12:49:06.355Z,185
2018-06-01T12:50:07.075Z,168
2018-06-01T12:51:07.744Z,163
2018-06-01T12:52:08.417Z,157
2018-06-01T12:53:09.119Z,163
2018-06-01T12:54:09.840Z,157
2018-06-01T12:55:10.454Z,118
2018-06-01T12:56:11.122Z,146
2018-06-01T12:57:11.793Z,140
2018-06-01T12:58:12.460Z,140
2018-06-01T12:59:13.168Z,140
2018-06-01T13:00:13.835Z,140
2018-06-01T13:01:14.505Z,135
2018-06-01T13:02:15.174Z,95
2018-06-01T13:03:15.842Z,112
2018-06-01T13:04:16.510Z,135
2018-06-01T13:05:17.179Z,146
2018-06-01T13:06:17.849Z,180
2018-06-01T13:07:18.556Z,191
2018-06-01T13:08:19.225Z,185
2018-06-01T13:09:19.893Z,185
2018-06-01T13:10:20.562Z,174
2018-06-01T13:11:21.229Z,157
2018-06-01T13:12:21.898Z,140
2018-06-01T13:13:22.569Z,135
2018-06-01T13:14:23.274Z,140
2018-06-01T13:15:23.942Z,140
2018-06-01T13:16:24.610Z,135
2018-06-01T13:17:25.280Z,135
2018-06-01T13:18:25.986Z,129
2018-06-01T13:19:26.658Z,129
2018-06-01T13:20:27.387Z,129
2018-06-01T13:21:28.061Z,129
2018-06-01T13:22:28.728Z,129
2018-06-01T13:23:29.400Z,129
2018-06-01T13:24:30.072Z,129
2018-06-01T13:25:30.741Z,106
2018-06-01T13:26:31.409Z,129
2018-06-01T13:27:32.077Z,129
2018-06-01T13:28:32.745Z,129
2018-06-01T13:29:33.412Z,135
2018-06-01T13:30:34.082Z,129
2018-06-01T13:31:34.756Z,135
2018-06-01T13:32:35.422Z,135
2018-06-01T13:33:36.132Z,135
2018-06-01T13:34:36.795Z,129
2018-06-01T13:35:37.463Z,129
2018-06-01T13:36:38.131Z,129
2018-06-01T13:37:38.807Z,140
2018-06-01T13:38:39.472Z,129
2018-06-01T13:39:40.176Z,129
2018-06-01T13:40:40.846Z,135
2018-06-01T13:41:41.515Z,146
2018-06-01T13:42:42.182Z,112
2018-06-01T13:43:42.891Z,146
2018-06-01T13:44:43.561Z,140
2018-06-01T13:45:44.230Z,151
2018-06-01T13:46:44.898Z,168
2018-06-01T13:47:45.626Z,180
2018-06-01T13:48:46.236Z,174
2018-06-01T13:49:46.905Z,151
2018-06-01T13:50:47.572Z,140
2018-06-01T13:51:48.242Z,146
2018-06-01T13:52:48.950Z,146
2018-06-01T13:53:49.617Z,151
2018-06-01T13:54:50.286Z,135
2018-06-01T13:55:50.955Z,129
2018-06-01T13:56:51.623Z,123
2018-06-01T13:57:52.292Z,123
2018-06-01T13:58:52.952Z,123
2018-06-01T13:59:53.620Z,123
2018-06-01T14:00:54.291Z,129
2018-06-01T14:01:54.958Z,135
2018-06-01T14:02:55.628Z,129
2018-06-01T14:03:56.298Z,140
2018-06-01T14:04:57.005Z,140
2018-06-01T14:05:57.709Z,135
2018-06-01T14:06:58.378Z,129
2018-06-01T14:07:59.084Z,129
2018-06-01T14:08:59.754Z,123
2018-06-01T14:10:00.427Z,123
2018-06-01T14:11:01.094Z,123
2018-06-01T14:12:01.764Z,123
2018-06-01T14:13:02.443Z,129
2018-06-01T14:14:03.104Z,129
2018-06-01T14:15:03.812Z,140